SBI7013 UNNT-UNTT
Flight info
| Callsign | SBI7013 |
|---|---|
| Flight time | 0h 48m |
| Altitude | 27000 |
| Route | DIMI1K DIMID G828 NN NN1G |
| Aircraft | E170/M-VGDW/C |
Departure
| Time | 2026-04-21 12:50 |
|---|---|
| Airport | Novosibirsk Tolmachevo Airport (UNNT) |
Arrival
| Time | 2026-04-21 13:39 |
|---|---|
| Airport | Tomsk Kamov Airport (UNTT) |
| Time | Latitude | Longitude | Altitude | Speed | Heading |
|---|---|---|---|---|---|
| 2026-04-21 12:28 | 55.01049 | 82.66255 | 355 ft | 0 kts | 172° |
| 2026-04-21 12:40 | 55.01048 | 82.66255 | 355 ft | 0 kts | 172° |
| 2026-04-21 12:45 | 55.01047 | 82.66255 | 355 ft | 1 kts | 172° |
| 2026-04-21 12:45 | 55.01020 | 82.66265 | 355 ft | 6 kts | 147° |
| 2026-04-21 12:46 | 55.01024 | 82.66374 | 355 ft | 12 kts | 74° |
| 2026-04-21 12:46 | 55.01062 | 82.66559 | 354 ft | 20 kts | 69° |
| 2026-04-21 12:46 | 55.01181 | 82.66639 | 352 ft | 21 kts | 353° |
| 2026-04-21 12:46 | 55.01259 | 82.66619 | 352 ft | 0 kts | 351° |
| 2026-04-21 12:48 | 55.01261 | 82.66618 | 352 ft | 1 kts | 351° |
| 2026-04-21 12:49 | 55.01287 | 82.66612 | 352 ft | 2 kts | 352° |
| 2026-04-21 12:49 | 55.01308 | 82.66607 | 352 ft | 7 kts | 353° |
| 2026-04-21 12:49 | 55.01365 | 82.66583 | 352 ft | 9 kts | 316° |
| 2026-04-21 12:49 | 55.01370 | 82.66460 | 352 ft | 26 kts | 257° |
| 2026-04-21 12:50 | 55.01295 | 82.65643 | 352 ft | 105 kts | 262° |
| 2026-04-21 12:50 | 55.01151 | 82.64062 | 454 ft | 150 kts | 264° |
| 2026-04-21 12:50 | 55.00984 | 82.62198 | 932 ft | 167 kts | 264° |
| 2026-04-21 12:50 | 55.00777 | 82.59931 | 1179 ft | 212 kts | 264° |
| 2026-04-21 12:51 | 55.00540 | 82.57297 | 1940 ft | 231 kts | 264° |
| 2026-04-21 12:51 | 55.00665 | 82.54607 | 3046 ft | 226 kts | 297° |
| 2026-04-21 12:51 | 55.01593 | 82.52569 | 4289 ft | 217 kts | 313° |
| 2026-04-21 12:51 | 55.02642 | 82.50679 | 5189 ft | 225 kts | 313° |
| 2026-04-21 12:52 | 55.03777 | 82.48676 | 5804 ft | 247 kts | 313° |
| 2026-04-21 12:52 | 55.05053 | 82.46446 | 6335 ft | 271 kts | 313° |
| 2026-04-21 12:52 | 55.06404 | 82.44102 | 7177 ft | 282 kts | 313° |
| 2026-04-21 12:52 | 55.07793 | 82.41697 | 7951 ft | 279 kts | 313° |
| 2026-04-21 12:53 | 55.09211 | 82.39403 | 7965 ft | 280 kts | 324° |
| 2026-04-21 12:53 | 55.11088 | 82.38389 | 8012 ft | 294 kts | 355° |
| 2026-04-21 12:53 | 55.13064 | 82.39283 | 8027 ft | 309 kts | 27° |
| 2026-04-21 12:53 | 55.14835 | 82.41656 | 8527 ft | 329 kts | 36° |
| 2026-04-21 12:54 | 55.16591 | 82.44179 | 9508 ft | 328 kts | 35° |
| 2026-04-21 12:54 | 55.18324 | 82.46670 | 10530 ft | 326 kts | 35° |
| 2026-04-21 12:54 | 55.20065 | 82.49174 | 11479 ft | 327 kts | 34° |
| 2026-04-21 12:54 | 55.21816 | 82.51691 | 12373 ft | 331 kts | 34° |
| 2026-04-21 12:55 | 55.23609 | 82.54271 | 13210 ft | 338 kts | 34° |
| 2026-04-21 12:55 | 55.25421 | 82.56877 | 14072 ft | 343 kts | 34° |
| 2026-04-21 12:55 | 55.27265 | 82.59533 | 14938 ft | 348 kts | 33° |
| 2026-04-21 12:55 | 55.29254 | 82.61810 | 15796 ft | 341 kts | 17° |
| 2026-04-21 12:56 | 55.31466 | 82.63159 | 16639 ft | 337 kts | 8° |
| 2026-04-21 12:56 | 55.33724 | 82.64096 | 17451 ft | 337 kts | 5° |
| 2026-04-21 12:56 | 55.36016 | 82.64877 | 18199 ft | 339 kts | 3° |
| 2026-04-21 12:56 | 55.38314 | 82.65593 | 18936 ft | 341 kts | 2° |
| 2026-04-21 12:57 | 55.40653 | 82.66295 | 19653 ft | 345 kts | 2° |
| 2026-04-21 12:57 | 55.43016 | 82.66994 | 20340 ft | 348 kts | 2° |
| 2026-04-21 12:57 | 55.45409 | 82.67698 | 21019 ft | 351 kts | 2° |
| 2026-04-21 12:57 | 55.47813 | 82.68371 | 21638 ft | 351 kts | 357° |
| 2026-04-21 12:58 | 55.50230 | 82.68524 | 22254 ft | 350 kts | 353° |
| 2026-04-21 12:58 | 55.52661 | 82.68601 | 22879 ft | 352 kts | 353° |
| 2026-04-21 12:58 | 55.55100 | 82.68678 | 23473 ft | 355 kts | 353° |
| 2026-04-21 12:58 | 55.57581 | 82.68757 | 24050 ft | 358 kts | 353° |
| 2026-04-21 12:59 | 55.60062 | 82.68835 | 24666 ft | 359 kts | 353° |
| 2026-04-21 12:59 | 55.62520 | 82.68913 | 25221 ft | 362 kts | 353° |
| 2026-04-21 12:59 | 55.65064 | 82.68993 | 25803 ft | 364 kts | 352° |
| 2026-04-21 12:59 | 55.67583 | 82.69073 | 26312 ft | 367 kts | 352° |
| 2026-04-21 13:00 | 55.70128 | 82.69153 | 26798 ft | 371 kts | 352° |
| 2026-04-21 13:00 | 55.72705 | 82.69236 | 27009 ft | 370 kts | 352° |
| 2026-04-21 13:00 | 55.75267 | 82.69318 | 27029 ft | 372 kts | 352° |
| 2026-04-21 13:00 | 55.77841 | 82.69400 | 27031 ft | 370 kts | 352° |
| 2026-04-21 13:01 | 55.80385 | 82.69481 | 27043 ft | 370 kts | 352° |
| 2026-04-21 13:01 | 55.82957 | 82.69563 | 27037 ft | 369 kts | 352° |
| 2026-04-21 13:01 | 55.85533 | 82.69646 | 27037 ft | 368 kts | 352° |
| 2026-04-21 13:01 | 55.88084 | 82.69727 | 27038 ft | 370 kts | 352° |
| 2026-04-21 13:02 | 55.90657 | 82.69810 | 27049 ft | 369 kts | 352° |
| 2026-04-21 13:02 | 55.93203 | 82.69891 | 27044 ft | 369 kts | 352° |
| 2026-04-21 13:02 | 55.98359 | 82.70057 | 27053 ft | 370 kts | 352° |
| 2026-04-21 13:03 | 56.00907 | 82.70140 | 27104 ft | 368 kts | 352° |
| 2026-04-21 13:03 | 56.03471 | 82.70424 | 27088 ft | 380 kts | 3° |
| 2026-04-21 13:03 | 56.05967 | 82.72358 | 27142 ft | 406 kts | 22° |
| 2026-04-21 13:03 | 56.08248 | 82.75422 | 27108 ft | 419 kts | 33° |
| 2026-04-21 13:04 | 56.10089 | 82.79507 | 27108 ft | 439 kts | 55° |
| 2026-04-21 13:04 | 56.11185 | 82.84715 | 27139 ft | 452 kts | 69° |
| 2026-04-21 13:04 | 56.11762 | 82.90291 | 27124 ft | 460 kts | 80° |
| 2026-04-21 13:04 | 56.11809 | 82.96028 | 27120 ft | 466 kts | 91° |
| 2026-04-21 13:05 | 56.11489 | 83.01772 | 27130 ft | 466 kts | 89° |
| 2026-04-21 13:05 | 56.11573 | 83.07489 | 27122 ft | 459 kts | 78° |
| 2026-04-21 13:05 | 56.12162 | 83.13038 | 27126 ft | 453 kts | 68° |
| 2026-04-21 13:05 | 56.13075 | 83.18404 | 27031 ft | 453 kts | 68° |
| 2026-04-21 13:06 | 56.13856 | 83.23862 | 26708 ft | 454 kts | 70° |
| 2026-04-21 13:06 | 56.14568 | 83.29312 | 26223 ft | 451 kts | 71° |
| 2026-04-21 13:06 | 56.15260 | 83.34778 | 25701 ft | 444 kts | 71° |
| 2026-04-21 13:06 | 56.15964 | 83.40063 | 25220 ft | 439 kts | 70° |
| 2026-04-21 13:07 | 56.16670 | 83.45351 | 24755 ft | 434 kts | 70° |
| 2026-04-21 13:07 | 56.17366 | 83.50587 | 24301 ft | 431 kts | 70° |
| 2026-04-21 13:07 | 56.18052 | 83.55765 | 23854 ft | 429 kts | 70° |
| 2026-04-21 13:07 | 56.18735 | 83.60938 | 23429 ft | 425 kts | 70° |
| 2026-04-21 13:08 | 56.19179 | 83.64312 | 23144 ft | 423 kts | 70° |
| 2026-04-21 13:08 | 56.20072 | 83.71124 | 22566 ft | 420 kts | 72° |
| 2026-04-21 13:08 | 56.20740 | 83.76239 | 22125 ft | 418 kts | 72° |
| 2026-04-21 13:08 | 56.21407 | 83.81356 | 21700 ft | 425 kts | 72° |
| 2026-04-21 13:09 | 56.22068 | 83.86461 | 21223 ft | 424 kts | 72° |
| 2026-04-21 13:09 | 56.22734 | 83.91618 | 20742 ft | 420 kts | 72° |
| 2026-04-21 13:09 | 56.23384 | 83.96661 | 20261 ft | 416 kts | 72° |
| 2026-04-21 13:09 | 56.24113 | 84.01661 | 19798 ft | 411 kts | 68° |
| 2026-04-21 13:10 | 56.24923 | 84.06575 | 19326 ft | 407 kts | 69° |
| 2026-04-21 13:10 | 56.25706 | 84.11372 | 18872 ft | 405 kts | 69° |
| 2026-04-21 13:10 | 56.26489 | 84.16190 | 18418 ft | 402 kts | 69° |
| 2026-04-21 13:10 | 56.27265 | 84.20982 | 17962 ft | 399 kts | 69° |
| 2026-04-21 13:11 | 56.28036 | 84.25754 | 17512 ft | 397 kts | 69° |
| 2026-04-21 13:11 | 56.28857 | 84.30476 | 17049 ft | 391 kts | 60° |
| 2026-04-21 13:11 | 56.30364 | 84.34297 | 16635 ft | 369 kts | 33° |
| 2026-04-21 13:11 | 56.32453 | 84.36716 | 16276 ft | 355 kts | 20° |
| 2026-04-21 13:12 | 56.34617 | 84.38810 | 15881 ft | 353 kts | 20° |
| 2026-04-21 13:12 | 56.36773 | 84.40927 | 15482 ft | 355 kts | 23° |
| 2026-04-21 13:12 | 56.38663 | 84.43794 | 15074 ft | 367 kts | 41° |
| 2026-04-21 13:12 | 56.40245 | 84.47431 | 14657 ft | 369 kts | 48° |
| 2026-04-21 13:13 | 56.41671 | 84.51249 | 14235 ft | 369 kts | 50° |
| 2026-04-21 13:13 | 56.43042 | 84.55142 | 13797 ft | 365 kts | 51° |
| 2026-04-21 13:13 | 56.44363 | 84.58974 | 13373 ft | 364 kts | 51° |
| 2026-04-21 13:13 | 56.45688 | 84.62859 | 12951 ft | 361 kts | 52° |
| 2026-04-21 13:14 | 56.46973 | 84.66641 | 12533 ft | 358 kts | 52° |
| 2026-04-21 13:14 | 56.48264 | 84.70451 | 12103 ft | 354 kts | 53° |
| 2026-04-21 13:14 | 56.49517 | 84.74156 | 11671 ft | 341 kts | 52° |
| 2026-04-21 13:14 | 56.50736 | 84.77769 | 11255 ft | 328 kts | 52° |
| 2026-04-21 13:15 | 56.51884 | 84.81171 | 10854 ft | 317 kts | 52° |
| 2026-04-21 13:15 | 56.52994 | 84.84470 | 10460 ft | 308 kts | 52° |
| 2026-04-21 13:15 | 56.54080 | 84.87693 | 10101 ft | 305 kts | 52° |
| 2026-04-21 13:15 | 56.55168 | 84.90930 | 9724 ft | 303 kts | 53° |
| 2026-04-21 13:16 | 56.56247 | 84.94145 | 9367 ft | 301 kts | 53° |
| 2026-04-21 13:16 | 56.57323 | 84.97356 | 9018 ft | 299 kts | 53° |
| 2026-04-21 13:16 | 56.58388 | 85.00540 | 8661 ft | 296 kts | 53° |
| 2026-04-21 13:16 | 56.59454 | 85.03732 | 8308 ft | 293 kts | 53° |
| 2026-04-21 13:17 | 56.60492 | 85.06842 | 7886 ft | 291 kts | 54° |
| 2026-04-21 13:17 | 56.61541 | 85.09988 | 7089 ft | 296 kts | 54° |
| 2026-04-21 13:17 | 56.62599 | 85.13166 | 6192 ft | 291 kts | 56° |
| 2026-04-21 13:17 | 56.63617 | 85.16230 | 5435 ft | 281 kts | 56° |
| 2026-04-21 13:18 | 56.64601 | 85.19199 | 4748 ft | 271 kts | 57° |
| 2026-04-21 13:18 | 56.65552 | 85.22066 | 3943 ft | 266 kts | 57° |
| 2026-04-21 13:18 | 56.66486 | 85.24885 | 3154 ft | 260 kts | 58° |
| 2026-04-21 13:18 | 56.67306 | 85.27742 | 2547 ft | 247 kts | 76° |
| 2026-04-21 13:19 | 56.67131 | 85.30629 | 2532 ft | 230 kts | 116° |
| 2026-04-21 13:19 | 56.66029 | 85.32642 | 2525 ft | 233 kts | 147° |
| 2026-04-21 13:19 | 56.64551 | 85.33899 | 2508 ft | 236 kts | 156° |
| 2026-04-21 13:19 | 56.63001 | 85.34861 | 2499 ft | 238 kts | 160° |
| 2026-04-21 13:20 | 56.61941 | 85.35411 | 2496 ft | 239 kts | 162° |
| 2026-04-21 13:20 | 56.59783 | 85.36396 | 2494 ft | 239 kts | 164° |
| 2026-04-21 13:20 | 56.58170 | 85.37070 | 2494 ft | 239 kts | 165° |
| 2026-04-21 13:20 | 56.56553 | 85.37717 | 2493 ft | 239 kts | 165° |
| 2026-04-21 13:21 | 56.54957 | 85.38341 | 2516 ft | 226 kts | 165° |
| 2026-04-21 13:21 | 56.53428 | 85.38571 | 2471 ft | 221 kts | 193° |
| 2026-04-21 13:21 | 56.52050 | 85.37444 | 2542 ft | 212 kts | 210° |
| 2026-04-21 13:21 | 56.50923 | 85.36088 | 2620 ft | 179 kts | 213° |
| 2026-04-21 13:22 | 56.49985 | 85.34935 | 2647 ft | 156 kts | 212° |
| 2026-04-21 13:22 | 56.49105 | 85.33894 | 2635 ft | 147 kts | 212° |
| 2026-04-21 13:22 | 56.48244 | 85.32868 | 2689 ft | 149 kts | 212° |
| 2026-04-21 13:22 | 56.47381 | 85.31836 | 2546 ft | 151 kts | 212° |
| 2026-04-21 13:23 | 56.46509 | 85.30792 | 2354 ft | 151 kts | 212° |
| 2026-04-21 13:23 | 56.45630 | 85.29749 | 2155 ft | 151 kts | 212° |
| 2026-04-21 13:23 | 56.44759 | 85.28708 | 1954 ft | 151 kts | 212° |
| 2026-04-21 13:23 | 56.43882 | 85.27666 | 1742 ft | 150 kts | 211° |
| 2026-04-21 13:24 | 56.43029 | 85.26645 | 1539 ft | 149 kts | 212° |
| 2026-04-21 13:24 | 56.42175 | 85.25608 | 1345 ft | 148 kts | 212° |
| 2026-04-21 13:24 | 56.41318 | 85.24580 | 1109 ft | 147 kts | 212° |
| 2026-04-21 13:24 | 56.40469 | 85.23567 | 905 ft | 146 kts | 212° |
| 2026-04-21 13:25 | 56.39616 | 85.22588 | 712 ft | 144 kts | 211° |
| 2026-04-21 13:25 | 56.38806 | 85.21639 | 584 ft | 127 kts | 211° |
| 2026-04-21 13:25 | 56.38104 | 85.20802 | 663 ft | 131 kts | 212° |
| 2026-04-21 13:25 | 56.37367 | 85.19861 | 1117 ft | 135 kts | 214° |
| 2026-04-21 13:26 | 56.36528 | 85.18945 | 1448 ft | 147 kts | 192° |
| 2026-04-21 13:26 | 56.35525 | 85.18978 | 1853 ft | 146 kts | 160° |
| 2026-04-21 13:26 | 56.34623 | 85.19796 | 2296 ft | 148 kts | 135° |
| 2026-04-21 13:26 | 56.34001 | 85.21215 | 2775 ft | 150 kts | 112° |
| 2026-04-21 13:27 | 56.33731 | 85.23046 | 2978 ft | 154 kts | 91° |
| 2026-04-21 13:27 | 56.33874 | 85.24915 | 2982 ft | 149 kts | 68° |
| 2026-04-21 13:27 | 56.34413 | 85.26472 | 2986 ft | 147 kts | 45° |
| 2026-04-21 13:27 | 56.35254 | 85.27474 | 2988 ft | 146 kts | 22° |
| 2026-04-21 13:28 | 56.36252 | 85.27763 | 2994 ft | 147 kts | 1° |
| 2026-04-21 13:28 | 56.37168 | 85.28455 | 2714 ft | 158 kts | 50° |
| 2026-04-21 13:28 | 56.37374 | 85.30491 | 1860 ft | 180 kts | 93° |
| 2026-04-21 13:28 | 56.37260 | 85.32456 | 2275 ft | 146 kts | 88° |
| 2026-04-21 13:29 | 56.37294 | 85.34201 | 2850 ft | 147 kts | 84° |
| 2026-04-21 13:29 | 56.37286 | 85.36078 | 2962 ft | 150 kts | 73° |
| 2026-04-21 13:29 | 56.37626 | 85.37811 | 2993 ft | 148 kts | 66° |
| 2026-04-21 13:29 | 56.37996 | 85.39548 | 2986 ft | 148 kts | 66° |
| 2026-04-21 13:30 | 56.38362 | 85.41269 | 2987 ft | 147 kts | 66° |
| 2026-04-21 13:30 | 56.38782 | 85.42943 | 2964 ft | 145 kts | 49° |
| 2026-04-21 13:30 | 56.39589 | 85.44039 | 3001 ft | 146 kts | 32° |
| 2026-04-21 13:30 | 56.40443 | 85.45001 | 2980 ft | 146 kts | 32° |
| 2026-04-21 13:31 | 56.41306 | 85.45967 | 2829 ft | 146 kts | 32° |
| 2026-04-21 13:31 | 56.42168 | 85.46926 | 2661 ft | 144 kts | 32° |
| 2026-04-21 13:31 | 56.43018 | 85.47865 | 2503 ft | 142 kts | 32° |
| 2026-04-21 13:31 | 56.43851 | 85.48781 | 2487 ft | 141 kts | 32° |
| 2026-04-21 13:32 | 56.44725 | 85.49591 | 2487 ft | 142 kts | 27° |
| 2026-04-21 13:32 | 56.45618 | 85.50394 | 2487 ft | 143 kts | 27° |
| 2026-04-21 13:32 | 56.46528 | 85.51067 | 2470 ft | 144 kts | 8° |
| 2026-04-21 13:32 | 56.47489 | 85.50531 | 2492 ft | 152 kts | 326° |
| 2026-04-21 13:33 | 56.48265 | 85.49221 | 2494 ft | 154 kts | 320° |
| 2026-04-21 13:33 | 56.49035 | 85.47870 | 2484 ft | 153 kts | 320° |
| 2026-04-21 13:33 | 56.49804 | 85.46528 | 2482 ft | 153 kts | 320° |
| 2026-04-21 13:33 | 56.50512 | 85.45097 | 2479 ft | 155 kts | 312° |
| 2026-04-21 13:34 | 56.51189 | 85.43587 | 2481 ft | 155 kts | 313° |
| 2026-04-21 13:34 | 56.51873 | 85.42064 | 2483 ft | 155 kts | 312° |
| 2026-04-21 13:34 | 56.52496 | 85.40465 | 2485 ft | 157 kts | 306° |
| 2026-04-21 13:34 | 56.52847 | 85.38586 | 2475 ft | 163 kts | 271° |
| 2026-04-21 13:35 | 56.52430 | 85.36703 | 2491 ft | 167 kts | 227° |
| 2026-04-21 13:35 | 56.51438 | 85.35739 | 2505 ft | 164 kts | 192° |
| 2026-04-21 13:35 | 56.50358 | 85.35017 | 2500 ft | 167 kts | 203° |
| 2026-04-21 13:35 | 56.49337 | 85.34040 | 2496 ft | 166 kts | 208° |
| 2026-04-21 13:36 | 56.48349 | 85.32954 | 2491 ft | 166 kts | 211° |
| 2026-04-21 13:36 | 56.47374 | 85.31821 | 2495 ft | 166 kts | 212° |
| 2026-04-21 13:36 | 56.46416 | 85.30686 | 2316 ft | 163 kts | 212° |
| 2026-04-21 13:36 | 56.45518 | 85.29610 | 2116 ft | 150 kts | 212° |
| 2026-04-21 13:37 | 56.44648 | 85.28578 | 1914 ft | 148 kts | 211° |
| 2026-04-21 13:37 | 56.43783 | 85.27547 | 1721 ft | 149 kts | 212° |
| 2026-04-21 13:37 | 56.42925 | 85.26527 | 1518 ft | 148 kts | 211° |
| 2026-04-21 13:37 | 56.42056 | 85.25488 | 1304 ft | 149 kts | 213° |
| 2026-04-21 13:38 | 56.41213 | 85.24444 | 1089 ft | 147 kts | 212° |
| 2026-04-21 13:38 | 56.40367 | 85.23462 | 877 ft | 146 kts | 211° |
| 2026-04-21 13:38 | 56.39516 | 85.22474 | 676 ft | 141 kts | 211° |
| 2026-04-21 13:38 | 56.38762 | 85.21577 | 575 ft | 116 kts | 213° |
| 2026-04-21 13:39 | 56.38222 | 85.20953 | 585 ft | 68 kts | 211° |
| 2026-04-21 13:39 | 56.37960 | 85.20634 | 586 ft | 23 kts | 215° |
| 2026-04-21 13:39 | 56.37891 | 85.20545 | 586 ft | 11 kts | 215° |
| 2026-04-21 13:39 | 56.37818 | 85.20448 | 587 ft | 14 kts | 217° |
| 2026-04-21 13:40 | 56.37804 | 85.20293 | 590 ft | 14 kts | 304° |
| 2026-04-21 13:40 | 56.37863 | 85.20147 | 594 ft | 12 kts | 333° |
| 2026-04-21 13:40 | 56.37951 | 85.20209 | 595 ft | 16 kts | 34° |
| 2026-04-21 13:40 | 56.38060 | 85.20338 | 592 ft | 21 kts | 34° |
| 2026-04-21 13:41 | 56.38205 | 85.20506 | 586 ft | 28 kts | 33° |
| 2026-04-21 13:41 | 56.38377 | 85.20715 | 581 ft | 30 kts | 33° |
| 2026-04-21 13:41 | 56.38562 | 85.20928 | 577 ft | 26 kts | 32° |
| 2026-04-21 13:41 | 56.38688 | 85.21082 | 574 ft | 16 kts | 36° |
| 2026-04-21 13:42 | 56.38770 | 85.21139 | 572 ft | 11 kts | 330° |
| 2026-04-21 13:42 | 56.38802 | 85.21063 | 570 ft | 2 kts | 306° |
| 2026-04-21 13:42 | 56.38806 | 85.21056 | 570 ft | 0 kts | 305° |